Time;durP1;ratioP1;P1;durP2;ratioP2;P2;SDS_P1;SDS_P2;PMS_P1;PMS_P2;Temp;Humidity;BMP_temperature;BMP_pressure;BME280_temperature;BME280_humidity;BME280_pressure;Samples;Min_cycle;Max_cycle;Signal;HPM_P1;HPM_P2
2022/08/23 00:00:42;;;;;;;1.42;0.45;;;23.20;61.40;;;;;;5089043;28;20396;-66
2022/08/23 00:03:08;;;;;;;0.90;0.40;;;23.20;61.40;;;;;;5087498;28;20040;-66
2022/08/23 00:05:33;;;;;;;0.73;0.32;;;23.20;61.40;;;;;;5087951;28;20043;-66
2022/08/23 00:07:59;;;;;;;1.45;0.55;;;23.20;61.50;;;;;;5088741;28;20377;-66
2022/08/23 00:10:24;;;;;;;0.68;0.30;;;23.20;61.40;;;;;;5087529;28;20399;-66
2022/08/23 00:12:50;;;;;;;0.93;0.43;;;23.20;61.40;;;;;;5087396;28;20133;-66
2022/08/23 00:15:19;;;;;;;0.80;0.63;;;23.20;61.40;;;;;;5088657;28;20131;-66
2022/08/23 00:17:45;;;;;;;0.70;0.40;;;23.20;61.40;;;;;;5087635;28;20388;-66
2022/08/23 00:20:15;;;;;;;0.80;0.30;;;23.20;61.40;;;;;;5087510;28;20144;-66
2022/08/23 00:22:41;;;;;;;;;;;23.10;61.40;;;;;;5089200;28;20407;-66
2022/08/23 00:25:09;;;;;;;2.13;0.85;;;23.10;61.40;;;;;;5088400;28;19916;-66
2022/08/23 00:27:36;;;;;;;1.10;0.40;;;23.10;61.30;;;;;;5087428;28;20040;-66
2022/08/23 00:30:05;;;;;;;1.38;0.63;;;23.20;61.40;;;;;;5086977;28;20048;-66
2022/08/23 00:32:34;;;;;;;1.05;0.40;;;23.10;61.30;;;;;;5086985;28;20095;-66
2022/08/23 00:35:00;;;;;;;1.48;0.50;;;23.10;61.40;;;;;;5086962;28;20044;-66
2022/08/23 00:37:27;;;;;;;1.00;0.30;;;23.10;61.30;;;;;;5087339;28;20059;-66
2022/08/23 00:39:53;;;;;;;1.38;0.60;;;23.10;61.30;;;;;;5088360;28;20032;-66
2022/08/23 00:48:05;;;;;;;1.88;0.57;;;23.10;61.30;;;;;;5128858;28;20134;-65
2022/08/23 00:50:55;;;;;;;1.63;0.65;;;23.10;61.30;;;;;;5128936;28;20127;-66
2022/08/23 00:53:26;;;;;;;0.88;0.45;;;23.10;61.30;;;;;;5129459;28;20073;-66
2022/08/23 00:55:57;;;;;;;0.90;0.40;;;23.10;61.30;;;;;;5128740;28;20040;-66
2022/08/23 00:58:23;;;;;;;1.90;0.40;;;23.10;61.30;;;;;;5112072;28;20092;-66
2022/08/23 01:00:52;;;;;;;0.60;0.40;;;23.10;61.30;;;;;;5129016;28;20027;-66
2022/08/23 01:03:18;;;;;;;0.90;0.40;;;23.10;61.30;;;;;;5128599;28;20050;-66
2022/08/23 01:06:06;;;;;;;0.80;0.30;;;23.10;61.30;;;;;;5128938;28;20031;-66
2022/08/23 01:08:34;;;;;;;0.93;0.60;;;23.10;61.30;;;;;;5129686;28;20391;-66
2022/08/23 01:11:07;;;;;;;1.25;0.40;;;23.10;61.30;;;;;;5128801;28;20429;-66
2022/08/23 01:13:42;;;;;;;0.90;0.40;;;23.10;61.30;;;;;;5128561;28;20047;-66
2022/08/23 01:16:23;;;;;;;1.25;0.50;;;23.10;62.00;;;;;;5128660;28;20108;-66
2022/08/23 01:18:49;;;;;;;1.02;0.50;;;23.10;61.30;;;;;;5128451;28;20062;-66
2022/08/23 01:21:24;;;;;;;0.63;0.30;;;23.00;61.20;;;;;;5128251;28;20051;-66
2022/08/23 01:23:54;;;;;;;0.80;0.50;;;23.10;61.30;;;;;;5129768;27;20387;-66
2022/08/23 01:26:22;;;;;;;1.17;0.98;;;23.00;61.30;;;;;;5128187;28;20035;-66
2022/08/23 01:28:48;;;;;;;1.10;0.40;;;23.00;61.20;;;;;;5128526;28;20386;-66
2022/08/23 01:31:15;;;;;;;0.82;0.40;;;23.00;61.30;;;;;;5128405;28;20088;-66
2022/08/23 01:33:42;;;;;;;1.02;0.45;;;23.10;61.30;;;;;;5128075;28;20092;-66
2022/08/23 01:36:10;;;;;;;0.63;0.40;;;23.00;61.20;;;;;;5128046;28;20122;-67
2022/08/23 01:38:36;;;;;;;1.15;0.45;;;23.10;61.30;;;;;;5129397;27;20040;-66
2022/08/23 01:41:02;;;;;;;1.08;0.50;;;23.00;61.20;;;;;;5128115;28;20041;-66
2022/08/23 01:43:28;;;;;;;1.55;0.40;;;23.00;61.20;;;;;;5127656;28;20043;-66
2022/08/23 01:45:54;;;;;;;0.98;0.40;;;23.00;61.20;;;;;;5129047;28;20042;-66
2022/08/23 01:48:21;;;;;;;0.90;0.45;;;23.00;61.20;;;;;;5127851;28;20039;-66
2022/08/23 01:50:47;;;;;;;0.60;0.30;;;23.00;61.20;;;;;;5129364;27;20114;-66
2022/08/23 01:53:13;;;;;;;0.82;0.50;;;23.00;61.20;;;;;;5127639;28;20463;-66
2022/08/23 01:55:41;;;;;;;0.68;0.38;;;23.00;61.20;;;;;;5119410;28;20409;-66
2022/08/23 01:58:08;;;;;;;0.93;0.30;;;23.00;61.20;;;;;;5115484;28;20043;-66
2022/08/23 02:00:38;;;;;;;0.85;0.40;;;23.00;61.20;;;;;;5114033;28;20050;-66
2022/08/23 02:03:05;;;;;;;1.13;0.30;;;23.00;61.20;;;;;;5113914;28;20436;-66
2022/08/23 02:05:32;;;;;;;0.73;0.30;;;23.00;61.20;;;;;;5113906;28;20043;-66
2022/08/23 02:08:59;;;;;;;0.68;0.40;;;23.00;61.20;;;;;;5115261;28;20079;-66
2022/08/23 02:10:43;;;;;;;0.80;0.30;;;22.90;61.20;;;;;;5113575;28;20039;-66
2022/08/23 02:13:09;;;;;;;0.85;0.40;;;23.00;61.20;;;;;;5113675;28;20036;-66
2022/08/23 02:15:34;;;;;;;1.25;0.38;;;23.00;61.20;;;;;;5113843;28;20035;-66
2022/08/23 02:18:00;;;;;;;1.27;0.40;;;22.90;61.20;;;;;;5113580;28;20415;-66
2022/08/23 02:20:26;;;;;;;0.82;0.40;;;22.90;61.20;;;;;;5114871;28;20156;-66
2022/08/23 02:22:51;;;;;;;0.95;0.65;;;22.90;61.20;;;;;;5113421;28;20040;-66
2022/08/23 02:25:17;;;;;;;0.75;0.50;;;22.90;61.20;;;;;;5114902;28;20104;-66
2022/08/23 02:27:43;;;;;;;0.43;0.40;;;22.90;61.20;;;;;;5096386;28;20131;-66
2022/08/23 02:30:09;;;;;;;3.03;0.50;;;22.90;61.20;;;;;;5113359;28;20100;-66
2022/08/23 02:32:34;;;;;;;0.80;0.38;;;22.90;61.20;;;;;;5114594;28;20071;-66
2022/08/23 02:35:00;;;;;;;1.10;0.40;;;22.90;61.20;;;;;;5113335;28;20574;-66
2022/08/23 02:37:26;;;;;;;0.82;0.40;;;22.90;61.20;;;;;;5113252;28;20040;-66
2022/08/23 02:39:51;;;;;;;1.15;0.70;;;22.90;61.20;;;;;;5113342;28;20043;-66
2022/08/23 02:42:17;;;;;;;0.93;0.70;;;22.90;61.20;;;;;;5113405;28;20044;-66
2022/08/23 02:44:43;;;;;;;0.80;0.30;;;22.90;61.20;;;;;;5112728;28;20056;-66
2022/08/23 02:47:10;;;;;;;0.68;0.32;;;22.90;61.10;;;;;;5113123;28;20039;-66
2022/08/23 02:49:36;;;;;;;0.70;0.25;;;22.90;61.10;;;;;;5113226;28;20039;-66
2022/08/23 02:52:05;;;;;;;0.93;0.40;;;22.90;61.10;;;;;;5113337;28;20040;-66
2022/08/23 02:54:31;;;;;;;1.25;0.40;;;22.90;61.10;;;;;;5112869;28;20621;-66
2022/08/23 02:56:56;;;;;;;0.90;0.50;;;22.90;61.10;;;;;;5113069;28;20055;-66
2022/08/23 02:59:22;;;;;;;0.77;0.47;;;22.90;61.10;;;;;;5112795;28;20403;-66
2022/08/23 03:01:48;;;;;;;1.52;0.50;;;22.90;61.00;;;;;;5112982;28;20033;-66
2022/08/23 03:04:13;;;;;;;1.02;0.30;;;22.90;61.10;;;;;;5112512;28;20542;-67
2022/08/23 03:06:39;;;;;;;0.50;0.20;;;22.90;61.10;;;;;;5111706;28;20050;-66
2022/08/23 03:09:06;;;;;;;0.70;0.30;;;22.80;61.00;;;;;;5112823;28;20035;-66
2022/08/23 03:11:32;;;;;;;0.57;0.38;;;22.90;61.10;;;;;;5112882;28;20092;-66
2022/08/23 03:14:00;;;;;;;1.13;0.40;;;22.90;61.00;;;;;;5112788;28;20415;-66
2022/08/23 03:16:26;;;;;;;0.77;0.30;;;22.80;60.90;;;;;;5095417;28;20073;-66
2022/08/23 03:18:52;;;;;;;0.90;0.30;;;22.80;61.00;;;;;;5112479;28;20553;-66
2022/08/23 03:21:19;;;;;;;0.50;0.30;;;22.80;60.90;;;;;;5113800;28;20490;-66
2022/08/23 03:23:45;;;;;;;0.73;0.35;;;22.80;61.00;;;;;;5112243;28;20058;-66
2022/08/23 03:26:12;;;;;;;0.75;0.32;;;22.80;60.90;;;;;;5112194;28;20093;-66
2022/08/23 03:28:40;;;;;;;0.50;0.30;;;22.80;60.90;;;;;;5112258;28;20587;-66
2022/08/23 03:31:06;;;;;;;0.75;0.40;;;22.80;60.90;;;;;;5112322;28;20368;-66
2022/08/23 03:33:32;;;;;;;0.82;0.40;;;22.80;60.90;;;;;;5095225;28;20870;-66
2022/08/23 03:36:02;;;;;;;0.88;0.40;;;22.80;60.90;;;;;;5112362;28;20043;-66
2022/08/23 03:38:27;;;;;;;0.73;0.22;;;22.80;60.90;;;;;;5112107;28;20048;-66
2022/08/23 03:40:53;;;;;;;0.57;0.30;;;22.80;60.90;;;;;;5111906;28;20035;-66
2022/08/23 03:43:20;;;;;;;0.70;0.30;;;22.80;60.90;;;;;;5111563;28;20095;-66
2022/08/23 03:45:45;;;;;;;0.80;0.40;;;22.80;60.90;;;;;;5112008;28;20109;-66
2022/08/23 03:48:11;;;;;;;0.60;0.30;;;22.80;60.90;;;;;;5112329;28;20043;-66
2022/08/23 03:50:37;;;;;;;0.88;0.50;;;22.80;60.90;;;;;;5112046;28;20044;-66
2022/08/23 03:53:03;;;;;;;0.60;0.30;;;22.80;60.90;;;;;;5112065;28;20390;-66
2022/08/23 03:55:29;;;;;;;0.70;0.30;;;22.80;60.90;;;;;;5112950;28;20039;-66
2022/08/23 03:57:55;;;;;;;0.57;0.22;;;22.80;60.90;;;;;;5111914;28;20036;-66
2022/08/23 04:00:21;;;;;;;0.50;0.20;;;22.80;60.90;;;;;;5112772;28;20043;-65
2022/08/23 04:02:47;;;;;;;0.60;0.30;;;22.70;60.80;;;;;;5111771;28;20432;-66
2022/08/23 04:05:12;;;;;;;0.93;0.40;;;22.80;60.90;;;;;;5111859;28;20082;-66
2022/08/23 04:07:39;;;;;;;0.95;0.20;;;22.80;60.80;;;;;;5111503;28;20040;-66
2022/08/23 04:10:07;;;;;;;1.38;0.30;;;22.70;60.80;;;;;;5111562;28;20043;-66
2022/08/23 04:12:34;;;;;;;0.60;0.30;;;22.70;60.80;;;;;;5111559;28;20047;-66
2022/08/23 04:14:59;;;;;;;0.43;0.32;;;22.70;60.80;;;;;;5111666;28;20051;-66
2022/08/23 04:17:25;;;;;;;0.98;0.40;;;22.70;60.80;;;;;;5112505;28;20383;-66
2022/08/23 04:19:51;;;;;;;0.70;0.20;;;22.70;61.00;;;;;;5111151;28;20399;-66
2022/08/23 04:22:18;;;;;;;0.88;0.30;;;22.70;60.70;;;;;;5111312;28;20510;-66
2022/08/23 04:24:45;;;;;;;1.38;0.38;;;22.70;60.70;;;;;;5111313;28;20062;-66
2022/08/23 04:27:11;;;;;;;0.60;0.30;;;22.70;60.70;;;;;;5112605;28;20119;-66
2022/08/23 04:29:38;;;;;;;0.73;0.35;;;22.70;60.80;;;;;;5112564;28;20039;-66
2022/08/23 04:32:05;;;;;;;0.80;0.20;;;22.70;60.80;;;;;;5111324;28;20119;-66
2022/08/23 04:34:32;;;;;;;0.93;0.30;;;22.70;60.70;;;;;;5111268;28;20475;-69
2022/08/23 04:36:59;;;;;;;1.98;0.40;;;22.70;60.80;;;;;;5111386;28;20398;-66
2022/08/23 04:39:25;;;;;;;0.73;0.30;;;22.70;60.70;;;;;;5111139;28;20035;-66
2022/08/23 04:42:22;;;;;;;0.55;0.30;;;22.70;60.80;;;;;;5111095;28;20051;-66
2022/08/23 04:44:36;;;;;;;0.65;0.32;;;22.70;60.70;;;;;;5110808;28;20135;-66
2022/08/23 04:47:02;;;;;;;0.80;0.30;;;22.70;60.80;;;;;;5110879;28;20118;-66
2022/08/23 04:49:28;;;;;;;0.70;0.40;;;22.70;60.80;;;;;;5111101;28;20040;-66
2022/08/23 04:51:54;;;;;;;0.85;0.35;;;22.70;60.70;;;;;;5111342;28;20085;-66
2022/08/23 04:54:21;;;;;;;0.90;0.25;;;22.70;60.80;;;;;;5112358;28;20043;-66
2022/08/23 04:56:47;;;;;;;0.70;0.20;;;22.70;60.80;;;;;;5111473;28;20051;-66
2022/08/23 04:59:13;;;;;;;0.75;0.30;;;22.70;60.70;;;;;;5111026;28;20039;-66
2022/08/23 05:01:39;;;;;;;0.73;0.20;;;22.70;60.70;;;;;;5112342;28;20479;-66
2022/08/23 05:04:05;;;;;;;0.60;0.30;;;22.60;60.70;;;;;;5110877;28;20044;-66
2022/08/23 05:06:31;;;;;;;0.50;0.38;;;22.60;60.70;;;;;;5112284;28;20073;-67
2022/08/23 05:08:57;;;;;;;0.60;0.20;;;22.60;60.70;;;;;;5111230;28;20047;-67
2022/08/23 05:11:23;;;;;;;1.88;0.47;;;22.70;60.70;;;;;;5110862;28;20338;-66
2022/08/23 05:13:49;;;;;;;0.57;0.30;;;22.70;60.70;;;;;;5110766;28;20342;-66
2022/08/23 05:16:15;;;;;;;0.57;0.30;;;22.70;60.70;;;;;;5110737;28;20047;-66
2022/08/23 05:18:41;;;;;;;1.30;0.57;;;22.60;60.70;;;;;;5110962;28;20082;-66
2022/08/23 05:21:07;;;;;;;0.73;0.30;;;22.60;60.70;;;;;;5110718;28;20054;-66
2022/08/23 05:23:33;;;;;;;1.77;0.22;;;22.60;60.70;;;;;;5110481;28;20039;-66
2022/08/23 05:26:00;;;;;;;1.15;0.30;;;22.60;60.70;;;;;;5110715;28;20123;-66
2022/08/23 05:28:33;;;;;;;0.77;0.40;;;22.60;60.70;;;;;;5110858;28;20119;-66
2022/08/23 05:33:42;;;;;;;0.80;0.38;;;22.60;60.70;;;;;;5089365;28;20788;-65
2022/08/23 05:36:11;;;;;;;0.55;0.40;;;22.60;60.70;;;;;;5088099;28;20090;-66
2022/08/23 05:38:37;;;;;;;0.65;0.30;;;22.60;60.70;;;;;;5088024;28;20560;-66
2022/08/23 05:41:03;;;;;;;0.82;0.30;;;22.60;60.70;;;;;;5088028;28;20036;-66
2022/08/23 05:43:30;;;;;;;1.55;0.40;;;22.60;60.70;;;;;;5088218;28;20043;-66
2022/08/23 05:48:41;;;;;;;0.70;0.30;;;22.50;60.60;;;;;;5089447;27;20413;-66
2022/08/23 05:51:09;;;;;;;0.55;0.30;;;22.60;60.70;;;;;;5089410;28;20047;-66
2022/08/23 05:53:37;;;;;;;1.58;0.40;;;22.60;60.70;;;;;;5087085;28;20502;-68
2022/08/23 05:56:13;;;;;;;1.75;0.30;;;22.60;60.70;;;;;;5087002;28;20040;-67
2022/08/23 05:58:39;;;;;;;0.70;0.30;;;22.60;60.60;;;;;;5084850;28;20114;-67
2022/08/23 06:01:05;;;;;;;0.80;0.30;;;22.60;60.50;;;;;;5086183;28;20048;-68
2022/08/23 06:03:31;;;;;;;1.67;0.20;;;22.70;60.50;;;;;;5087025;28;20051;-69
2022/08/23 06:05:57;;;;;;;1.15;0.40;;;22.70;60.60;;;;;;5087449;28;20132;-69
2022/08/23 06:08:23;;;;;;;1.98;0.40;;;22.70;60.60;;;;;;5087231;28;20048;-69
2022/08/23 06:10:49;;;;;;;1.02;0.30;;;22.80;60.60;;;;;;5087513;28;20079;-69
2022/08/23 06:13:14;;;;;;;0.60;0.30;;;22.80;60.60;;;;;;5087654;28;20044;-69
2022/08/23 06:15:43;;;;;;;4.20;0.30;;;22.80;60.50;;;;;;5087631;28;20036;-69
2022/08/23 06:18:11;;;;;;;2.75;0.52;;;22.80;60.50;;;;;;5089180;28;20032;-69
2022/08/23 06:20:37;;;;;;;2.85;0.30;;;22.80;60.50;;;;;;5087459;28;20044;-69
2022/08/23 06:23:05;;;;;;;1.83;0.70;;;22.80;60.50;;;;;;5087472;28;20048;-68
2022/08/23 06:25:36;;;;;;;1.40;0.30;;;22.80;60.50;;;;;;5087282;28;20056;-70
2022/08/23 06:28:01;;;;;;;4.75;0.60;;;22.80;60.60;;;;;;5086856;28;20128;-68
2022/08/23 06:30:27;;;;;;;3.60;0.80;;;22.80;60.60;;;;;;5086984;28;20158;-68
2022/08/23 06:32:53;;;;;;;2.13;0.95;;;22.90;60.80;;;;;;5091648;28;20484;-69
2022/08/23 06:35:18;;;;;;;2.25;0.73;;;22.90;60.80;;;;;;5085436;28;20040;-70
2022/08/23 06:37:44;;;;;;;3.25;0.88;;;22.90;60.90;;;;;;5085290;28;20032;-69
2022/08/23 06:40:10;;;;;;;5.53;1.15;;;22.90;61.00;;;;;;5087260;28;20127;-70
2022/08/23 06:42:35;;;;;;;4.35;0.80;;;22.90;61.10;;;;;;5070223;28;20040;-71
2022/08/23 06:45:01;;;;;;;2.42;0.68;;;23.00;61.10;;;;;;5088394;28;20039;-70
2022/08/23 06:47:27;;;;;;;7.22;1.15;;;23.00;61.10;;;;;;5086105;28;20040;-77
2022/08/23 06:49:53;;;;;;;4.25;0.70;;;23.00;61.10;;;;;;5086957;28;20044;-70
2022/08/23 06:52:19;;;;;;;8.15;1.35;;;23.00;61.20;;;;;;5087443;28;20094;-72
2022/08/23 06:54:45;;;;;;;5.05;0.80;;;23.00;61.30;;;;;;5086435;28;20044;-69
2022/08/23 06:57:13;;;;;;;4.38;1.05;;;23.10;61.40;;;;;;5084860;28;20044;-71
2022/08/23 06:59:38;;;;;;;9.70;0.98;;;23.10;61.50;;;;;;5072874;28;20091;-70
2022/08/23 07:02:07;;;;;;;3.92;1.00;;;23.10;61.40;;;;;;5071182;28;20059;-71
2022/08/23 07:04:38;;;;;;;4.82;1.00;;;23.10;61.40;;;;;;5071160;28;20047;-72
2022/08/23 07:07:05;;;;;;;7.97;1.10;;;23.10;61.40;;;;;;5076926;28;20045;-71
2022/08/23 07:09:31;;;;;;;5.45;1.00;;;23.10;61.40;;;;;;5054075;28;20033;-70
2022/08/23 07:11:59;;;;;;;4.47;1.60;;;23.10;61.40;;;;;;5072910;28;20044;-71
2022/08/23 07:14:25;;;;;;;3.08;0.95;;;23.10;61.40;;;;;;5072091;28;20036;-69
2022/08/23 07:16:58;;;;;;;3.25;0.90;;;23.10;61.40;;;;;;5072205;28;20045;-69
2022/08/23 07:19:27;;;;;;;5.90;1.20;;;23.10;61.40;;;;;;5072039;28;20041;-67
2022/08/23 07:21:53;;;;;;;8.70;1.08;;;23.10;61.30;;;;;;5069622;28;20519;-68
2022/08/23 07:24:19;;;;;;;9.18;1.30;;;23.10;61.40;;;;;;5054319;28;20094;-68
2022/08/23 07:26:47;;;;;;;7.03;1.15;;;23.20;61.40;;;;;;5071053;28;20040;-69
2022/08/23 07:29:15;;;;;;;3.10;0.98;;;23.10;61.20;;;;;;5073579;28;20033;-68
2022/08/23 07:31:45;;;;;;;6.22;0.80;;;23.10;61.20;;;;;;5071353;28;20058;-69
2022/08/23 07:34:11;;;;;;;4.55;1.00;;;23.10;61.20;;;;;;5070837;28;20045;-69
2022/08/23 07:36:39;;;;;;;6.93;0.85;;;23.20;61.20;;;;;;5070803;28;20044;-69
2022/08/23 07:39:06;;;;;;;5.85;0.80;;;23.10;61.10;;;;;;5071303;28;20040;-69
2022/08/23 07:41:34;;;;;;;4.75;1.33;;;23.20;61.20;;;;;;5070553;28;20055;-68
2022/08/23 07:44:01;;;;;;;2.45;0.95;;;23.20;61.20;;;;;;5071175;28;20051;-69
2022/08/23 07:46:28;;;;;;;5.25;1.08;;;23.20;61.20;;;;;;5072801;28;20036;-68
2022/08/23 07:48:57;;;;;;;2.03;0.68;;;23.20;61.10;;;;;;5070201;28;20049;-68
2022/08/23 07:51:23;;;;;;;6.53;0.82;;;23.20;61.20;;;;;;5069877;28;20044;-70
2022/08/23 07:53:49;;;;;;;2.35;0.90;;;23.20;61.30;;;;;;5070416;28;20104;-69
2022/08/23 07:56:17;;;;;;;7.43;0.95;;;23.20;61.30;;;;;;5057522;28;20045;-69
2022/08/23 07:58:43;;;;;;;5.97;1.08;;;23.20;61.30;;;;;;5061559;28;20025;-69
2022/08/23 08:03:52;;;;;;;6.65;1.40;;;23.20;61.20;;;;;;5075494;28;20373;-70
2022/08/23 08:06:20;;;;;;;;;;;23.20;61.20;;;;;;5075976;28;20447;-68
2022/08/23 08:08:47;;;;;;;6.22;0.90;;;23.30;61.60;;;;;;5064155;28;19932;-68
2022/08/23 08:11:15;;;;;;;3.85;0.95;;;23.30;62.10;;;;;;5064502;28;20072;-67
2022/08/23 08:13:42;;;;;;;8.82;1.05;;;23.40;61.60;;;;;;5063997;28;20041;-67
2022/08/23 08:16:09;;;;;;;10.75;1.15;;;23.40;61.50;;;;;;5066669;28;20506;-67
2022/08/23 08:18:36;;;;;;;9.82;1.00;;;23.40;61.60;;;;;;5062588;28;20515;-69
2022/08/23 08:21:03;;;;;;;4.28;0.85;;;23.40;61.60;;;;;;5076493;28;20045;-68
2022/08/23 08:23:29;;;;;;;3.33;0.85;;;23.40;61.70;;;;;;5072201;28;20489;-70
2022/08/23 08:26:01;;;;;;;5.32;1.50;;;23.50;61.80;;;;;;5065555;28;20521;-69
2022/08/23 08:28:26;;;;;;;6.63;2.10;;;23.50;61.80;;;;;;5060692;28;20392;-68
2022/08/23 08:30:52;;;;;;;3.45;0.82;;;23.50;61.70;;;;;;5064149;28;20047;-69
2022/08/23 08:33:18;;;;;;;11.20;1.20;;;23.60;61.70;;;;;;5075662;28;20389;-69
2022/08/23 08:35:47;;;;;;;5.68;1.55;;;23.50;61.60;;;;;;5079308;28;20053;-71
2022/08/23 08:38:13;;;;;;;5.13;1.65;;;23.50;61.80;;;;;;5062435;28;20041;-67
2022/08/23 08:40:40;;;;;;;3.92;0.93;;;23.60;61.90;;;;;;5062057;28;20071;-70
2022/08/23 08:48:48;;;;;;;4.93;1.10;;;23.60;61.90;;;;;;5088024;27;20442;-72
2022/08/23 08:54:08;;;;;;;6.05;1.10;;;23.60;61.70;;;;;;5063883;28;20378;-66
2022/08/23 08:56:38;;;;;;;8.02;1.75;;;23.70;61.80;;;;;;5071146;28;20515;-66
2022/08/23 08:59:08;;;;;;;2.88;1.33;;;23.70;61.70;;;;;;5051038;28;20036;-64
2022/08/23 09:01:36;;;;;;;3.67;1.45;;;23.70;61.70;;;;;;5049484;28;20435;-65
2022/08/23 09:04:04;;;;;;;5.65;1.55;;;23.70;61.70;;;;;;5048966;28;20041;-66
2022/08/23 09:06:40;;;;;;;8.98;1.30;;;23.70;61.70;;;;;;5049531;28;20119;-65
2022/08/23 09:12:15;;;;;;;1.83;1.52;;;23.70;61.70;;;;;;5092974;27;20379;-66
2022/08/23 09:15:06;;;;;;;4.75;1.10;;;23.70;61.90;;;;;;5065360;28;20059;-65
2022/08/23 09:17:53;;;;;;;4.45;1.83;;;23.70;61.90;;;;;;5061820;28;20056;-65
2022/08/23 09:20:21;;;;;;;6.93;1.45;;;23.80;62.00;;;;;;5061542;28;20043;-66
2022/08/23 09:22:56;;;;;;;3.45;1.33;;;23.80;62.00;;;;;;5059291;28;20037;-68
2022/08/23 09:25:23;;;;;;;2.00;1.48;;;23.90;62.10;;;;;;5063510;28;20040;-68
2022/08/23 09:27:49;;;;;;;2.88;2.08;;;23.90;62.00;;;;;;5060780;28;20557;-65
2022/08/23 09:30:17;;;;;;;4.05;1.90;;;23.90;62.10;;;;;;5075252;28;20076;-65
2022/08/23 09:32:44;;;;;;;6.80;2.85;;;23.90;62.10;;;;;;5065609;28;20045;-66
2022/08/23 09:35:21;;;;;;;9.25;3.75;;;23.90;62.00;;;;;;5080837;28;20111;-64
2022/08/23 09:38:23;;;;;;;15.45;4.43;;;24.00;62.20;;;;;;5060423;28;20070;-66
2022/08/23 09:40:50;;;;;;;8.23;3.80;;;24.00;61.90;;;;;;5067461;28;20048;-68
2022/08/23 09:46:00;;;;;;;7.60;3.78;;;24.00;61.90;;;;;;5117796;27;20379;-67
2022/08/23 09:48:39;;;;;;;14.65;4.15;;;24.10;61.90;;;;;;5116838;28;20115;-65
2022/08/23 09:51:41;;;;;;;9.85;3.80;;;24.10;61.80;;;;;;5099086;28;20043;-65
2022/08/23 09:54:17;;;;;;;7.32;4.25;;;24.10;61.70;;;;;;5100476;28;20046;-65
2022/08/23 09:56:54;;;;;;;11.98;3.75;;;24.10;61.60;;;;;;5101310;28;20047;-65
2022/08/23 10:02:22;;;;;;;8.27;4.00;;;24.10;61.50;;;;;;5113088;27;20564;-66
2022/08/23 10:07:38;;;;;;;8.13;3.50;;;24.10;61.20;;;;;;5102444;27;20457;-66
2022/08/23 10:12:59;;;;;;;8.80;3.97;;;24.10;60.90;;;;;;5073420;27;20380;-66
2022/08/23 10:16:05;;;;;;;9.05;3.20;;;24.10;60.70;;;;;;5084795;28;20602;-66
2022/08/23 10:24:18;;;;;;;5.82;2.63;;;24.10;60.50;;;;;;5103971;27;20538;-65
2022/08/23 10:29:37;;;;;;;5.25;2.45;;;24.10;60.50;;;;;;5103136;27;20430;-67
2022/08/23 10:35:14;;;;;;;8.55;2.40;;;24.20;60.60;;;;;;5100490;27;20425;-66
2022/08/23 10:37:51;;;;;;;7.10;2.42;;;24.20;60.50;;;;;;5105128;28;20056;-66
2022/08/23 10:45:45;;;;;;;4.25;2.22;;;24.30;60.60;;;;;;5118032;27;20763;-66
2022/08/23 10:48:27;;;;;;;6.40;2.08;;;24.30;60.60;;;;;;5113006;27;20043;-67
2022/08/23 10:56:18;;;;;;;7.60;2.00;;;24.30;60.70;;;;;;5074571;28;20379;-67
2022/08/23 11:04:51;;;;;;;5.85;1.83;;;24.40;60.40;;;;;;5106146;27;20393;-67
2022/08/23 11:07:28;;;;;;;3.15;1.90;;;24.40;60.10;;;;;;5102106;28;20052;-66
2022/08/23 11:12:56;;;;;;;6.05;1.83;;;24.40;60.10;;;;;;5115236;27;20408;-66
2022/08/23 11:15:36;;;;;;;6.35;1.65;;;24.40;60.10;;;;;;5122107;28;20535;-66
2022/08/23 11:18:04;;;;;;;;;;;24.40;60.20;;;;;;5120274;27;20463;-66
2022/08/23 11:23:53;;;;;;;3.35;1.42;;;24.40;60.20;;;;;;5061578;27;20929;-66
2022/08/23 11:35:17;;;;;;;2.97;0.95;;;24.40;60.00;;;;;;5112477;27;20403;-68
2022/08/23 11:37:55;;;;;;;3.95;1.20;;;24.40;59.30;;;;;;5111697;28;20054;-65
2022/08/23 11:43:37;;;;;;;5.82;1.92;;;24.50;59.50;;;;;;5102887;27;20793;-66
2022/08/23 11:49:27;;;;;;;2.00;1.02;;;24.50;59.70;;;;;;5096812;27;20799;-67
2022/08/23 11:58:18;;;;;;;3.38;0.90;;;24.50;58.70;;;;;;5075780;28;20406;-65
2022/08/23 12:01:06;;;;;;;2.70;0.80;;;24.50;58.70;;;;;;5078453;28;20040;-65
2022/08/23 12:06:34;;;;;;;4.15;1.00;;;24.50;58.70;;;;;;5141098;27;1162685;-66
2022/08/23 12:09:03;;;;;;;2.08;0.70;;;24.60;58.30;;;;;;5141779;27;20539;-67
2022/08/23 12:23:06;;;;;;;3.75;0.88;;;24.60;57.70;;;;;;5077342;28;20430;-66
2022/08/23 12:25:33;;;;;;;4.85;0.80;;;24.70;57.10;;;;;;5063172;28;20044;-67
2022/08/23 12:30:58;;;;;;;2.35;1.27;;;24.70;56.60;;;;;;5114498;27;20396;-68
2022/08/23 12:33:51;;;;;;;4.03;0.90;;;24.70;56.30;;;;;;5100793;28;20480;-67
2022/08/23 12:41:54;;;;;;;3.33;1.42;;;24.70;56.30;;;;;;5071314;28;20137;-67
2022/08/23 12:44:22;;;;;;;2.47;1.13;;;24.60;56.70;;;;;;5077377;28;20045;-67
2022/08/23 12:46:49;;;;;;;2.65;0.85;;;24.60;56.90;;;;;;5057557;28;20393;-67
2022/08/23 12:49:26;;;;;;;3.55;0.77;;;24.50;56.90;;;;;;5062124;28;20037;-67
2022/08/23 12:51:55;;;;;;;1.65;0.82;;;24.50;57.00;;;;;;5051450;28;20117;-67
2022/08/23 12:54:31;;;;;;;2.38;0.90;;;24.50;57.20;;;;;;5077526;28;20553;-67
2022/08/23 12:56:58;;;;;;;6.28;1.30;;;24.40;57.30;;;;;;5048117;28;20033;-67
2022/08/23 12:59:40;;;;;;;3.10;0.60;;;24.40;57.40;;;;;;5050034;28;20397;-67
2022/08/23 13:02:13;;;;;;;2.22;0.77;;;24.40;57.40;;;;;;5061701;28;20041;-67
2022/08/23 13:04:42;;;;;;;2.28;0.93;;;24.30;57.50;;;;;;5057177;28;20037;-67
2022/08/23 13:07:13;;;;;;;5.53;2.28;;;24.30;57.60;;;;;;5076412;28;20440;-67
2022/08/23 13:09:42;;;;;;;3.35;0.82;;;24.30;57.70;;;;;;5068572;28;20040;-67
2022/08/23 13:12:09;;;;;;;6.90;1.23;;;24.30;57.80;;;;;;5077200;28;20048;-67
2022/08/23 13:14:43;;;;;;;1.42;0.70;;;24.30;57.80;;;;;;5077226;28;20052;-67
2022/08/23 13:23:08;;;;;;;2.55;0.75;;;24.30;57.90;;;;;;5114874;27;20339;-67
2022/08/23 13:25:39;;;;;;;2.88;0.77;;;24.20;58.00;;;;;;5104673;28;20036;-68
2022/08/23 13:28:24;;;;;;;2.63;0.98;;;24.20;58.10;;;;;;5087820;28;20032;-67
2022/08/23 13:31:00;;;;;;;3.33;0.95;;;24.20;58.10;;;;;;5122004;27;20048;-67
2022/08/23 13:33:26;;;;;;;2.15;0.77;;;24.20;58.20;;;;;;5102896;28;20036;-68
2022/08/23 13:36:13;;;;;;;4.65;0.95;;;24.20;58.20;;;;;;5086367;28;20045;-68
2022/08/23 13:38:41;;;;;;;1.60;1.02;;;24.20;58.20;;;;;;5081248;28;20080;-67
2022/08/23 13:41:09;;;;;;;1.58;0.88;;;24.20;58.30;;;;;;5082168;28;20041;-68
2022/08/23 13:46:19;;;;;;;1.70;0.80;;;24.20;58.30;;;;;;5115698;27;20695;-67
2022/08/23 13:48:56;;;;;;;2.72;0.95;;;24.20;58.40;;;;;;5113799;27;20074;-67
2022/08/23 13:54:11;;;;;;;1.80;0.70;;;24.20;58.40;;;;;;5120056;27;20435;-67
2022/08/23 13:56:45;;;;;;;2.72;0.77;;;24.20;58.50;;;;;;5112193;28;20406;-67
2022/08/23 13:59:23;;;;;;;1.75;0.93;;;24.20;58.50;;;;;;5095259;28;20042;-67
2022/08/23 14:01:50;;;;;;;2.50;0.80;;;24.20;58.50;;;;;;5090674;28;20441;-67
2022/08/23 14:04:15;;;;;;;1.73;0.70;;;24.20;58.60;;;;;;5124868;28;20084;-67
2022/08/23 14:06:41;;;;;;;3.50;0.60;;;24.10;58.50;;;;;;5096704;28;20409;-67
2022/08/23 14:09:06;;;;;;;2.38;0.60;;;24.20;58.60;;;;;;5128504;27;20495;-67
2022/08/23 14:11:33;;;;;;;2.78;0.80;;;24.20;58.60;;;;;;5089537;28;20036;-67
2022/08/23 14:13:59;;;;;;;1.77;0.63;;;24.20;58.60;;;;;;5095209;28;20071;-67
2022/08/23 14:16:30;;;;;;;3.03;0.82;;;24.20;58.70;;;;;;5115054;28;20053;-67
2022/08/23 14:18:56;;;;;;;1.15;0.65;;;24.10;58.70;;;;;;5091261;28;20042;-67
2022/08/23 14:21:22;;;;;;;1.85;0.80;;;24.20;58.80;;;;;;5092111;28;20036;-67
2022/08/23 14:23:48;;;;;;;0.90;0.73;;;24.20;58.80;;;;;;5094514;28;20130;-68
2022/08/23 14:26:17;;;;;;;1.20;0.60;;;24.20;58.80;;;;;;5090350;28;20154;-68
2022/08/23 14:28:44;;;;;;;1.75;0.82;;;24.20;58.80;;;;;;5089953;28;20031;-68
2022/08/23 14:31:11;;;;;;;2.42;0.70;;;24.20;58.80;;;;;;5123283;27;20043;-70
2022/08/23 14:33:38;;;;;;;2.28;0.98;;;24.10;58.80;;;;;;5101853;28;20047;-70
2022/08/23 14:36:05;;;;;;;1.33;0.47;;;24.10;58.80;;;;;;5105846;28;20052;-72
2022/08/23 14:38:31;;;;;;;1.95;1.20;;;24.20;58.90;;;;;;5105641;28;20391;-70
2022/08/23 14:41:01;;;;;;;1.65;0.60;;;24.20;58.90;;;;;;5089547;28;20123;-68
2022/08/23 14:43:28;;;;;;;1.35;0.70;;;24.20;58.90;;;;;;5106769;28;20039;-68
2022/08/23 14:45:54;;;;;;;1.27;0.73;;;24.20;58.90;;;;;;5089245;28;20043;-68
2022/08/23 14:48:22;;;;;;;1.48;0.68;;;24.20;58.90;;;;;;5086650;28;20050;-68
2022/08/23 14:50:48;;;;;;;2.08;0.63;;;24.20;58.90;;;;;;5078706;28;20675;-68
2022/08/23 14:53:17;;;;;;;2.60;0.70;;;24.20;58.90;;;;;;5085469;28;20058;-69
2022/08/23 14:55:43;;;;;;;1.25;0.50;;;24.20;58.90;;;;;;5087339;28;20044;-69
2022/08/23 14:58:09;;;;;;;1.88;0.73;;;24.20;58.90;;;;;;5082558;28;20503;-70
2022/08/23 15:00:35;;;;;;;1.75;0.90;;;24.20;59.60;;;;;;5080507;28;20046;-70
2022/08/23 15:03:03;;;;;;;2.25;0.93;;;24.20;58.90;;;;;;5076635;28;20380;-69